Time;durP1;ratioP1;P1;durP2;ratioP2;P2;SDS_P1;SDS_P2;PMS_P1;PMS_P2;Temp;Humidity;BMP_temperature;BMP_pressure;BME280_temperature;BME280_humidity;BME280_pressure;Samples;Min_cycle;Max_cycle;Signal;HPM_P1;HPM_P2
2023/05/10 00:02:02;;;;;;;3.85;2.40;;;;;;;;;;4966216;28;20049;-68
2023/05/10 00:04:27;;;;;;;4.22;2.55;;;;;;;;;;4956476;28;20040;-68
2023/05/10 00:06:53;;;;;;;3.78;2.75;;;;;;;;;;4966706;28;20053;-68
2023/05/10 00:09:19;;;;;;;3.65;2.53;;;;;;;;;;4965639;28;20100;-68
2023/05/10 00:11:44;;;;;;;4.38;2.47;;;;;;;;;;4956637;28;20045;-68
2023/05/10 00:14:10;;;;;;;3.33;2.55;;;;;;;;;;4967621;28;20038;-68
2023/05/10 00:16:35;;;;;;;7.18;2.35;;;;;;;;;;4970251;28;20042;-68
2023/05/10 00:19:00;;;;;;;4.65;2.70;;;;;;;;;;4966318;28;20044;-68
2023/05/10 00:21:28;;;;;;;3.08;2.42;;;;;;;;;;4966955;28;20034;-68
2023/05/10 00:23:53;;;;;;;3.97;2.75;;;;;;;;;;4961250;28;20128;-67
2023/05/10 00:26:18;;;;;;;3.25;2.50;;;;;;;;;;4961725;28;20189;-68
2023/05/10 00:28:44;;;;;;;4.00;2.58;;;;;;;;;;4964409;28;20041;-68
2023/05/10 00:31:09;;;;;;;3.38;2.38;;;;;;;;;;4953274;28;20042;-68
2023/05/10 00:33:35;;;;;;;3.47;2.28;;;;;;;;;;4966749;28;20045;-67
2023/05/10 00:36:00;;;;;;;4.43;2.67;;;;;;;;;;4974791;28;20455;-67
2023/05/10 00:38:25;;;;;;;4.10;2.47;;;;;;;;;;4954888;28;20163;-67
2023/05/10 00:40:51;;;;;;;4.93;2.40;;;;;;;;;;4953696;28;20507;-67
2023/05/10 00:43:16;;;;;;;5.40;2.80;;;;;;;;;;4962373;28;20062;-68
2023/05/10 00:45:42;;;;;;;4.05;2.63;;;;;;;;;;4956407;28;20030;-68
2023/05/10 00:48:08;;;;;;;3.80;2.80;;;;;;;;;;4965064;28;20073;-68
2023/05/10 00:50:33;;;;;;;3.72;2.53;;;;;;;;;;4974458;28;20076;-68
2023/05/10 00:53:00;;;;;;;5.13;2.88;;;;;;;;;;4963394;28;20062;-68
2023/05/10 00:55:26;;;;;;;4.60;2.65;;;;;;;;;;4942172;28;20043;-68
2023/05/10 00:57:53;;;;;;;3.33;2.60;;;;;;;;;;4972140;28;20438;-68
2023/05/10 01:00:18;;;;;;;4.35;2.58;;;;;;;;;;4948934;28;20528;-68
2023/05/10 01:02:47;;;;;;;4.38;2.72;;;;;;;;;;4963064;28;20038;-68
2023/05/10 01:05:13;;;;;;;6.07;2.75;;;;;;;;;;4969866;28;20030;-69
2023/05/10 01:07:39;;;;;;;4.22;2.80;;;;;;;;;;4972853;28;20106;-68
2023/05/10 01:10:06;;;;;;;3.97;2.70;;;;;;;;;;4973723;28;20045;-69
2023/05/10 01:12:32;;;;;;;4.57;3.05;;;;;;;;;;4962690;28;20046;-69
2023/05/10 01:15:00;;;;;;;8.40;4.65;;;;;;;;;;4961185;28;20444;-69
2023/05/10 01:17:25;;;;;;;5.57;3.15;;;;;;;;;;4974428;28;20041;-68
2023/05/10 01:19:51;;;;;;;8.30;4.32;;;;;;;;;;4964971;28;20044;-68
2023/05/10 01:22:22;;;;;;;5.95;4.00;;;;;;;;;;4954648;28;20129;-68
2023/05/10 01:25:12;;;;;;;4.65;3.65;;;;;;;;;;4963775;28;20046;-67
2023/05/10 01:27:49;;;;;;;5.47;3.47;;;;;;;;;;4944450;28;20097;-68
2023/05/10 01:30:26;;;;;;;6.55;3.63;;;;;;;;;;4972350;28;20039;-68
2023/05/10 01:33:07;;;;;;;6.07;3.97;;;;;;;;;;4923024;28;20100;-68
2023/05/10 01:35:41;;;;;;;5.55;3.75;;;;;;;;;;4949220;28;20035;-68
2023/05/10 01:38:46;;;;;;;6.35;4.38;;;;;;;;;;4925657;28;20708;-67
2023/05/10 01:41:16;;;;;;;4.65;3.70;;;;;;;;;;4946454;28;20471;-67
2023/05/10 01:44:00;;;;;;;8.85;3.95;;;;;;;;;;4964370;28;20514;-68
2023/05/10 01:46:48;;;;;;;6.25;3.85;;;;;;;;;;4955861;28;20051;-68
2023/05/10 01:49:43;;;;;;;5.55;3.83;;;;;;;;;;4957670;28;20395;-67
2023/05/10 01:52:12;;;;;;;5.15;3.78;;;;;;;;;;4946954;28;20040;-67
2023/05/10 01:54:42;;;;;;;5.10;3.78;;;;;;;;;;4953961;28;20038;-68
2023/05/10 01:57:11;;;;;;;5.18;3.90;;;;;;;;;;4973042;28;20050;-68
2023/05/10 01:59:40;;;;;;;5.70;3.45;;;;;;;;;;4968819;28;20126;-68
2023/05/10 02:02:07;;;;;;;7.68;4.10;;;;;;;;;;4971312;28;20042;-67
2023/05/10 02:04:35;;;;;;;5.22;3.65;;;;;;;;;;4971008;28;20100;-68
2023/05/10 02:07:00;;;;;;;6.63;3.90;;;;;;;;;;4969373;28;20049;-68
2023/05/10 02:09:27;;;;;;;5.93;3.33;;;;;;;;;;4966869;28;20043;-67
2023/05/10 02:11:54;;;;;;;6.38;3.50;;;;;;;;;;4968345;28;20038;-68
2023/05/10 02:14:21;;;;;;;5.65;3.90;;;;;;;;;;4972649;28;20054;-67
2023/05/10 02:16:47;;;;;;;4.95;4.10;;;;;;;;;;4951265;28;20610;-68
2023/05/10 02:19:14;;;;;;;6.63;4.63;;;;;;;;;;4974433;28;20765;-68
2023/05/10 02:21:41;;;;;;;4.80;3.67;;;;;;;;;;4965734;28;20046;-68
2023/05/10 02:24:08;;;;;;;6.78;3.95;;;;;;;;;;4973000;28;20034;-68
2023/05/10 02:26:35;;;;;;;5.60;3.85;;;;;;;;;;4972875;28;20077;-67
2023/05/10 02:29:03;;;;;;;6.43;3.90;;;;;;;;;;4968010;28;20046;-68
2023/05/10 02:31:31;;;;;;;5.82;4.30;;;;;;;;;;4961672;28;20050;-68
2023/05/10 02:33:58;;;;;;;6.57;4.03;;;;;;;;;;4963761;28;20395;-68
2023/05/10 02:36:27;;;;;;;4.97;3.38;;;;;;;;;;4963592;28;20142;-68
2023/05/10 02:38:53;;;;;;;5.45;3.95;;;;;;;;;;4971836;28;20038;-67
2023/05/10 02:41:21;;;;;;;5.38;3.88;;;;;;;;;;4971310;28;20121;-68
2023/05/10 02:43:47;;;;;;;6.03;4.13;;;;;;;;;;4964506;28;20050;-68
2023/05/10 02:46:12;;;;;;;4.43;3.58;;;;;;;;;;4967039;28;20039;-68
2023/05/10 02:48:38;;;;;;;6.18;3.83;;;;;;;;;;4960106;28;20042;-68
2023/05/10 02:51:06;;;;;;;5.22;3.67;;;;;;;;;;4969820;28;20034;-68
2023/05/10 02:53:35;;;;;;;6.45;3.55;;;;;;;;;;4972110;28;20498;-68
2023/05/10 02:56:06;;;;;;;5.25;4.07;;;;;;;;;;4967588;28;20054;-68
2023/05/10 02:58:32;;;;;;;5.75;3.55;;;;;;;;;;4943080;28;20058;-68
2023/05/10 03:00:57;;;;;;;5.63;3.55;;;;;;;;;;4957160;28;20426;-67
2023/05/10 03:03:23;;;;;;;6.75;3.78;;;;;;;;;;4975792;28;20035;-67
2023/05/10 03:05:48;;;;;;;4.28;3.35;;;;;;;;;;4973722;28;20045;-68
2023/05/10 03:08:14;;;;;;;5.75;3.88;;;;;;;;;;4966982;28;20049;-68
2023/05/10 03:11:16;;;;;;;5.40;3.45;;;;;;;;;;4965519;28;20053;-67
2023/05/10 03:13:48;;;;;;;;;;;;;;;;;;4955276;28;20550;-68
2023/05/10 03:16:35;;;;;;;4.47;3.10;;;;;;;;;;4963843;28;19922;-67
2023/05/10 03:19:17;;;;;;;5.30;3.38;;;;;;;;;;4961865;28;20034;-68
2023/05/10 03:21:49;;;;;;;5.50;3.58;;;;;;;;;;4958360;28;20097;-68
2023/05/10 03:24:16;;;;;;;4.70;4.03;;;;;;;;;;4936992;28;20031;-68
2023/05/10 03:26:43;;;;;;;6.68;3.60;;;;;;;;;;4963600;28;20572;-67
2023/05/10 03:29:11;;;;;;;5.50;3.72;;;;;;;;;;4963561;28;20039;-67
2023/05/10 03:31:38;;;;;;;5.95;3.97;;;;;;;;;;4960782;28;20030;-68
2023/05/10 03:34:03;;;;;;;8.48;4.28;;;;;;;;;;4962429;28;20514;-67
2023/05/10 03:36:28;;;;;;;4.78;3.75;;;;;;;;;;4965778;28;20089;-67
2023/05/10 03:38:54;;;;;;;5.22;3.47;;;;;;;;;;4968834;28;20042;-68
2023/05/10 03:41:20;;;;;;;5.82;3.05;;;;;;;;;;4964269;28;20104;-67
2023/05/10 03:43:45;;;;;;;4.35;3.28;;;;;;;;;;4974502;28;20050;-67
2023/05/10 03:46:11;;;;;;;7.28;3.58;;;;;;;;;;4958908;28;20495;-67
2023/05/10 03:48:36;;;;;;;4.53;3.55;;;;;;;;;;4972971;28;20077;-67
2023/05/10 03:51:02;;;;;;;5.18;3.40;;;;;;;;;;4952134;28;20593;-68
2023/05/10 03:53:27;;;;;;;4.75;3.60;;;;;;;;;;4960068;28;20035;-67
2023/05/10 03:55:53;;;;;;;7.15;3.80;;;;;;;;;;4956584;28;20596;-67
2023/05/10 03:58:18;;;;;;;4.47;3.50;;;;;;;;;;4955563;28;20050;-68
2023/05/10 04:00:45;;;;;;;5.30;4.05;;;;;;;;;;4956406;28;20874;-67
2023/05/10 04:03:11;;;;;;;6.85;4.10;;;;;;;;;;4966657;28;20409;-67
2023/05/10 04:05:37;;;;;;;6.20;3.75;;;;;;;;;;4951624;28;20064;-68
2023/05/10 04:08:03;;;;;;;5.78;3.95;;;;;;;;;;4971731;28;20143;-68
2023/05/10 04:10:28;;;;;;;7.53;3.80;;;;;;;;;;4966295;28;20042;-67
2023/05/10 04:12:54;;;;;;;5.15;4.00;;;;;;;;;;4953468;28;20412;-68
2023/05/10 04:15:19;;;;;;;5.60;4.43;;;;;;;;;;4963995;28;20081;-68
2023/05/10 04:17:45;;;;;;;5.35;3.83;;;;;;;;;;4960407;28;20093;-68
2023/05/10 04:20:11;;;;;;;4.75;3.85;;;;;;;;;;4956769;28;20076;-68
2023/05/10 04:22:37;;;;;;;7.65;4.13;;;;;;;;;;4958944;28;20072;-68
2023/05/10 04:25:02;;;;;;;6.20;3.90;;;;;;;;;;4967714;28;20048;-68
2023/05/10 04:27:28;;;;;;;5.75;3.70;;;;;;;;;;4953691;28;20634;-68
2023/05/10 04:29:53;;;;;;;6.38;4.07;;;;;;;;;;4960324;28;20038;-68
2023/05/10 04:32:20;;;;;;;6.28;4.72;;;;;;;;;;4967729;28;20050;-68
2023/05/10 04:34:45;;;;;;;5.43;4.18;;;;;;;;;;4955554;28;20055;-68
2023/05/10 04:37:10;;;;;;;4.88;3.63;;;;;;;;;;4965981;28;20435;-68
2023/05/10 04:39:36;;;;;;;5.40;3.90;;;;;;;;;;4967256;28;20574;-68
2023/05/10 04:42:03;;;;;;;5.65;4.00;;;;;;;;;;4956945;28;20245;-68
2023/05/10 04:44:29;;;;;;;6.47;4.43;;;;;;;;;;4961350;28;20050;-68
2023/05/10 04:46:55;;;;;;;5.20;3.40;;;;;;;;;;4957076;28;20058;-68
2023/05/10 04:49:21;;;;;;;3.08;2.08;;;;;;;;;;4964688;28;20152;-68
2023/05/10 04:51:46;;;;;;;4.38;3.00;;;;;;;;;;4964009;28;20034;-68
2023/05/10 04:54:12;;;;;;;7.38;3.75;;;;;;;;;;4972601;28;20133;-68
2023/05/10 04:56:37;;;;;;;5.40;3.65;;;;;;;;;;4949709;28;20420;-68
2023/05/10 04:59:03;;;;;;;5.65;4.00;;;;;;;;;;4952098;28;20118;-68
2023/05/10 05:01:29;;;;;;;4.90;3.58;;;;;;;;;;4947563;28;20070;-68
2023/05/10 05:03:54;;;;;;;5.53;3.78;;;;;;;;;;4973754;28;20076;-68
2023/05/10 05:06:20;;;;;;;8.88;3.95;;;;;;;;;;4963466;28;20038;-68
2023/05/10 05:08:46;;;;;;;5.38;4.22;;;;;;;;;;4954863;28;20038;-68
2023/05/10 05:11:11;;;;;;;6.53;4.40;;;;;;;;;;4967083;28;20087;-68
2023/05/10 05:13:37;;;;;;;5.75;4.00;;;;;;;;;;4973520;28;20046;-68
2023/05/10 05:16:02;;;;;;;6.63;3.97;;;;;;;;;;4953855;28;20605;-68
2023/05/10 05:18:28;;;;;;;6.10;3.80;;;;;;;;;;4964478;28;20117;-68
2023/05/10 05:20:54;;;;;;;7.25;3.72;;;;;;;;;;4949941;28;20081;-68
2023/05/10 05:23:20;;;;;;;5.70;4.22;;;;;;;;;;4955814;28;20038;-68
2023/05/10 05:25:46;;;;;;;6.70;4.13;;;;;;;;;;4966486;28;20045;-68
2023/05/10 05:28:11;;;;;;;6.78;4.93;;;;;;;;;;4963312;28;20042;-68
2023/05/10 05:30:37;;;;;;;5.63;4.85;;;;;;;;;;4949803;28;20140;-67
2023/05/10 05:33:02;;;;;;;6.10;4.45;;;;;;;;;;4963435;28;20054;-66
2023/05/10 05:35:27;;;;;;;6.57;4.70;;;;;;;;;;4960642;28;20034;-68
2023/05/10 05:37:53;;;;;;;9.52;4.38;;;;;;;;;;4957391;28;20076;-66
2023/05/10 05:40:18;;;;;;;6.28;4.55;;;;;;;;;;4966433;28;20038;-66
2023/05/10 05:42:44;;;;;;;6.10;4.65;;;;;;;;;;4962836;28;20034;-65
2023/05/10 05:45:12;;;;;;;5.93;3.88;;;;;;;;;;4957760;28;20450;-65
2023/05/10 05:47:38;;;;;;;6.80;4.03;;;;;;;;;;4962745;28;20046;-66
2023/05/10 05:50:04;;;;;;;8.32;4.05;;;;;;;;;;4955915;28;20042;-66
2023/05/10 05:52:30;;;;;;;3.83;2.85;;;;;;;;;;4947914;28;20476;-66
2023/05/10 05:54:55;;;;;;;5.70;3.90;;;;;;;;;;4970497;28;20046;-68
2023/05/10 05:57:21;;;;;;;5.40;4.20;;;;;;;;;;4967062;28;20035;-69
2023/05/10 05:59:47;;;;;;;4.63;3.80;;;;;;;;;;4971577;28;20115;-68
2023/05/10 06:02:12;;;;;;;6.10;3.83;;;;;;;;;;4953409;28;20051;-68
2023/05/10 06:04:37;;;;;;;7.78;4.13;;;;;;;;;;4965474;28;20048;-68
2023/05/10 06:07:03;;;;;;;6.22;4.10;;;;;;;;;;4960204;28;20075;-68
2023/05/10 06:09:28;;;;;;;8.95;4.07;;;;;;;;;;4974503;28;20052;-69
2023/05/10 06:11:54;;;;;;;5.32;4.38;;;;;;;;;;4964641;28;20038;-68
2023/05/10 06:14:22;;;;;;;5.50;4.60;;;;;;;;;;4969630;28;20061;-68
2023/05/10 06:16:47;;;;;;;5.53;4.07;;;;;;;;;;4961915;28;20085;-68
2023/05/10 06:19:12;;;;;;;6.03;4.13;;;;;;;;;;4961440;28;20652;-69
2023/05/10 06:21:38;;;;;;;5.80;4.00;;;;;;;;;;4974788;28;20065;-68
2023/05/10 06:24:04;;;;;;;6.07;4.05;;;;;;;;;;4966322;28;20117;-68
2023/05/10 06:26:29;;;;;;;6.57;4.22;;;;;;;;;;4959750;28;20042;-68
2023/05/10 06:28:55;;;;;;;9.35;5.30;;;;;;;;;;4960598;28;20078;-68
2023/05/10 06:31:20;;;;;;;5.80;4.40;;;;;;;;;;4954335;28;20034;-68
2023/05/10 06:33:46;;;;;;;7.60;4.47;;;;;;;;;;4956215;28;20062;-68
2023/05/10 06:36:11;;;;;;;5.55;4.60;;;;;;;;;;4963620;28;20082;-68
2023/05/10 06:38:37;;;;;;;4.97;4.43;;;;;;;;;;4962307;28;20634;-67
2023/05/10 06:41:02;;;;;;;5.60;4.28;;;;;;;;;;4950874;28;20039;-68
2023/05/10 06:43:28;;;;;;;8.25;4.43;;;;;;;;;;4967474;28;20034;-68
2023/05/10 06:45:54;;;;;;;6.78;4.93;;;;;;;;;;4964260;28;20035;-68
2023/05/10 06:48:19;;;;;;;4.90;4.00;;;;;;;;;;4950221;28;20103;-68
2023/05/10 06:50:44;;;;;;;6.40;4.55;;;;;;;;;;4959158;28;20046;-68
2023/05/10 06:53:11;;;;;;;6.25;4.43;;;;;;;;;;4967603;28;20104;-68
2023/05/10 06:55:36;;;;;;;5.82;4.70;;;;;;;;;;4953948;28;20269;-68
2023/05/10 06:58:02;;;;;;;5.85;4.63;;;;;;;;;;4971074;28;20113;-68
2023/05/10 07:00:27;;;;;;;6.90;4.95;;;;;;;;;;4950532;28;20061;-68
2023/05/10 07:02:52;;;;;;;6.50;4.75;;;;;;;;;;4947144;28;20034;-68
2023/05/10 07:05:18;;;;;;;4.60;4.07;;;;;;;;;;4928803;28;20466;-68
2023/05/10 07:07:43;;;;;;;6.25;4.22;;;;;;;;;;4947505;28;20046;-69
2023/05/10 07:10:09;;;;;;;6.78;4.20;;;;;;;;;;4962481;28;20042;-68
2023/05/10 07:12:35;;;;;;;7.13;4.72;;;;;;;;;;4955031;28;20054;-68
2023/05/10 07:15:00;;;;;;;8.18;5.25;;;;;;;;;;4954796;28;20105;-68
2023/05/10 07:17:25;;;;;;;6.78;4.95;;;;;;;;;;4956197;28;20133;-68
2023/05/10 07:19:51;;;;;;;6.68;5.45;;;;;;;;;;4965196;28;20269;-68
2023/05/10 07:22:17;;;;;;;7.28;5.47;;;;;;;;;;4957930;28;20543;-68
2023/05/10 07:24:44;;;;;;;6.30;4.63;;;;;;;;;;4967316;28;20477;-68
2023/05/10 07:27:09;;;;;;;8.75;5.20;;;;;;;;;;4949715;28;20069;-68
2023/05/10 07:29:35;;;;;;;7.70;6.20;;;;;;;;;;4967945;28;20518;-68
2023/05/10 07:32:01;;;;;;;6.13;4.65;;;;;;;;;;4932392;28;20712;-68
2023/05/10 07:34:26;;;;;;;6.40;4.40;;;;;;;;;;4961767;28;20049;-68
2023/05/10 07:36:52;;;;;;;6.80;4.55;;;;;;;;;;4954251;28;20509;-68
2023/05/10 07:39:20;;;;;;;6.03;4.30;;;;;;;;;;4965081;28;20054;-68
2023/05/10 07:41:45;;;;;;;6.72;4.57;;;;;;;;;;4960977;28;20030;-68
2023/05/10 07:44:11;;;;;;;5.35;4.45;;;;;;;;;;4946694;28;20038;-68
2023/05/10 07:46:36;;;;;;;6.57;4.65;;;;;;;;;;4964770;28;20112;-68
2023/05/10 07:49:02;;;;;;;5.35;4.50;;;;;;;;;;4963636;28;20042;-68
2023/05/10 07:51:27;;;;;;;6.47;4.95;;;;;;;;;;4950756;28;20046;-69
2023/05/10 07:53:53;;;;;;;7.30;4.85;;;;;;;;;;4963671;28;20060;-68
2023/05/10 07:56:29;;;;;;;6.35;5.07;;;;;;;;;;4948828;28;20085;-69
2023/05/10 07:58:55;;;;;;;5.70;4.65;;;;;;;;;;4932237;28;20133;-69
2023/05/10 08:01:22;;;;;;;7.07;5.22;;;;;;;;;;4950235;28;20034;-70
2023/05/10 08:03:50;;;;;;;7.13;5.22;;;;;;;;;;4946966;28;20045;-69
2023/05/10 08:06:17;;;;;;;5.85;4.93;;;;;;;;;;4930696;28;20038;-70
2023/05/10 08:08:43;;;;;;;6.15;5.05;;;;;;;;;;4954375;28;20084;-69
2023/05/10 08:11:08;;;;;;;6.05;4.90;;;;;;;;;;4927669;28;20059;-69
2023/05/10 08:13:42;;;;;;;7.50;5.30;;;;;;;;;;4944184;28;20125;-68
2023/05/10 08:16:08;;;;;;;6.28;4.53;;;;;;;;;;4932608;28;20244;-70
2023/05/10 08:18:33;;;;;;;7.55;5.03;;;;;;;;;;4954540;28;20117;-71
2023/05/10 08:20:58;;;;;;;5.85;4.75;;;;;;;;;;4954339;28;20046;-70
2023/05/10 08:23:24;;;;;;;7.05;5.70;;;;;;;;;;4961026;28;20221;-71
2023/05/10 08:25:52;;;;;;;7.10;5.53;;;;;;;;;;4950537;28;20043;-71
2023/05/10 08:28:17;;;;;;;8.55;5.25;;;;;;;;;;4961530;28;20046;-71
2023/05/10 08:30:43;;;;;;;6.05;5.03;;;;;;;;;;4952720;28;20049;-69
2023/05/10 08:33:08;;;;;;;5.78;4.68;;;;;;;;;;4956454;28;20434;-68
2023/05/10 08:35:34;;;;;;;4.90;3.28;;;;;;;;;;4964883;28;20530;-68
2023/05/10 08:38:00;;;;;;;4.50;3.30;;;;;;;;;;4957162;28;20038;-68
2023/05/10 08:40:26;;;;;;;5.47;3.15;;;;;;;;;;4938986;28;20439;-68
2023/05/10 08:42:58;;;;;;;6.93;4.20;;;;;;;;;;4955822;28;20109;-68
2023/05/10 08:45:26;;;;;;;5.00;3.25;;;;;;;;;;4945469;28;20046;-68
2023/05/10 08:47:52;;;;;;;5.38;3.25;;;;;;;;;;4952584;28;20043;-68
2023/05/10 08:50:20;;;;;;;6.32;3.30;;;;;;;;;;4956798;28;20638;-68
2023/05/10 08:52:48;;;;;;;4.25;2.88;;;;;;;;;;4945220;28;20149;-68
2023/05/10 08:55:14;;;;;;;3.30;2.33;;;;;;;;;;4943398;28;20039;-68
2023/05/10 08:57:39;;;;;;;3.97;2.50;;;;;;;;;;4944904;28;20081;-68
2023/05/10 09:00:05;;;;;;;3.60;2.35;;;;;;;;;;4962314;28;20121;-68
2023/05/10 09:02:31;;;;;;;4.30;2.60;;;;;;;;;;4955847;28;20093;-68
2023/05/10 09:04:56;;;;;;;2.28;1.70;;;;;;;;;;4956859;28;20475;-68
2023/05/10 09:07:22;;;;;;;2.67;1.10;;;;;;;;;;4930163;28;20544;-68
2023/05/10 09:09:48;;;;;;;1.52;1.20;;;;;;;;;;4955006;28;20133;-68
2023/05/10 09:12:15;;;;;;;0.77;0.50;;;;;;;;;;4945110;28;20094;-68
2023/05/10 09:14:45;;;;;;;0.60;0.60;;;;;;;;;;4951169;28;20038;-68
2023/05/10 09:17:10;;;;;;;0.60;0.60;;;;;;;;;;4962070;28;20061;-68
2023/05/10 09:19:36;;;;;;;1.70;0.50;;;;;;;;;;4949585;28;20035;-68
2023/05/10 09:22:02;;;;;;;0.50;0.50;;;;;;;;;;4957741;28;20437;-68
2023/05/10 09:24:29;;;;;;;0.35;0.35;;;;;;;;;;4955135;28;20145;-67
2023/05/10 09:26:57;;;;;;;0.85;0.43;;;;;;;;;;4934863;28;20094;-68
2023/05/10 09:29:22;;;;;;;0.40;0.40;;;;;;;;;;4958418;28;20057;-68
2023/05/10 09:31:50;;;;;;;0.75;0.40;;;;;;;;;;4956887;28;20039;-68
2023/05/10 09:34:18;;;;;;;1.55;0.70;;;;;;;;;;4946587;28;20066;-68
2023/05/10 09:36:54;;;;;;;0.63;0.50;;;;;;;;;;4962728;28;20093;-67
2023/05/10 09:39:20;;;;;;;0.57;0.40;;;;;;;;;;4959116;28;20041;-68
2023/05/10 09:41:46;;;;;;;0.73;0.60;;;;;;;;;;4967319;28;20046;-68
2023/05/10 09:44:17;;;;;;;0.30;0.30;;;;;;;;;;4969819;28;20069;-68
2023/05/10 09:46:43;;;;;;;0.50;0.50;;;;;;;;;;4948310;28;20137;-67
2023/05/10 09:49:08;;;;;;;0.95;0.60;;;;;;;;;;4978193;23;20098;-71
2023/05/10 09:51:34;;;;;;;1.15;0.40;;;;;;;;;;4950806;28;20034;-71
2023/05/10 09:54:18;;;;;;;1.08;0.70;;;;;;;;;;4959305;28;20582;-67
2023/05/10 09:56:44;;;;;;;0.68;0.45;;;;;;;;;;4960215;28;20074;-68
2023/05/10 09:59:12;;;;;;;0.60;0.43;;;;;;;;;;4935853;28;20052;-68
2023/05/10 10:01:38;;;;;;;4.03;0.68;;;;;;;;;;4950112;28;20041;-68
2023/05/10 10:04:05;;;;;;;0.82;0.40;;;;;;;;;;4943951;28;20035;-68
2023/05/10 10:06:38;;;;;;;2.33;0.55;;;;;;;;;;4942666;28;20043;-68
2023/05/10 10:09:06;;;;;;;0.40;0.40;;;;;;;;;;4940279;28;20031;-68
2023/05/10 10:11:32;;;;;;;1.60;0.80;;;;;;;;;;4934909;28;20042;-68
2023/05/10 10:13:58;;;;;;;1.08;0.40;;;;;;;;;;4945959;28;20405;-67
2023/05/10 10:16:24;;;;;;;0.98;0.45;;;;;;;;;;4942571;28;20706;-69
2023/05/10 10:18:50;;;;;;;0.70;0.50;;;;;;;;;;4941352;28;20070;-68
2023/05/10 10:21:16;;;;;;;1.35;0.60;;;;;;;;;;4948229;28;20083;-69
2023/05/10 10:23:41;;;;;;;2.13;0.80;;;;;;;;;;4938422;28;20058;-69
2023/05/10 10:26:07;;;;;;;0.85;0.60;;;;;;;;;;4934485;28;20055;-68
2023/05/10 10:28:40;;;;;;;0.90;0.50;;;;;;;;;;4942743;28;20038;-68
2023/05/10 10:31:27;;;;;;;0.75;0.60;;;;;;;;;;4935049;28;20043;-68
2023/05/10 10:34:02;;;;;;;0.65;0.50;;;;;;;;;;4933403;28;20035;-68
2023/05/10 10:36:27;;;;;;;2.08;0.55;;;;;;;;;;4926036;28;20124;-68
2023/05/10 10:39:01;;;;;;;0.75;0.60;;;;;;;;;;4940871;28;20126;-67
2023/05/10 10:41:44;;;;;;;0.77;0.50;;;;;;;;;;4936357;28;20067;-68
2023/05/10 10:44:22;;;;;;;0.50;0.40;;;;;;;;;;4942750;28;20035;-68
2023/05/10 10:47:00;;;;;;;0.60;0.52;;;;;;;;;;4910853;28;20039;-68
2023/05/10 10:49:26;;;;;;;2.47;0.63;;;;;;;;;;4943393;28;20789;-69
2023/05/10 10:52:14;;;;;;;0.77;0.60;;;;;;;;;;4944044;28;20113;-68
2023/05/10 10:54:41;;;;;;;1.25;0.60;;;;;;;;;;4945245;28;20027;-68
2023/05/10 10:57:14;;;;;;;1.25;0.70;;;;;;;;;;4926531;28;20086;-68
2023/05/10 10:59:43;;;;;;;2.45;0.40;;;;;;;;;;4937692;28;20065;-67
2023/05/10 11:02:09;;;;;;;1.98;0.57;;;;;;;;;;4932457;28;20041;-68
2023/05/10 11:04:46;;;;;;;1.08;0.90;;;;;;;;;;4947654;28;20027;-68
2023/05/10 11:07:19;;;;;;;0.93;0.70;;;;;;;;;;4946706;28;20042;-68
2023/05/10 11:09:46;;;;;;;1.33;0.55;;;;;;;;;;4932388;28;20509;-68
2023/05/10 11:12:12;;;;;;;0.70;0.60;;;;;;;;;;4930761;28;20047;-68
2023/05/10 11:14:37;;;;;;;0.88;0.50;;;;;;;;;;4923846;28;20119;-68
2023/05/10 11:17:23;;;;;;;1.50;0.50;;;;;;;;;;4936286;28;20142;-68
2023/05/10 11:20:09;;;;;;;0.98;0.60;;;;;;;;;;4936317;28;20615;-68
2023/05/10 11:22:51;;;;;;;0.52;0.47;;;;;;;;;;4938390;28;20035;-68
2023/05/10 11:25:16;;;;;;;0.60;0.40;;;;;;;;;;4945504;28;20079;-68
2023/05/10 11:27:41;;;;;;;0.45;0.45;;;;;;;;;;4949919;28;20074;-67
2023/05/10 11:30:10;;;;;;;0.73;0.57;;;;;;;;;;4945408;28;20110;-68
2023/05/10 11:32:38;;;;;;;0.57;0.57;;;;;;;;;;4943179;28;20038;-68
2023/05/10 11:35:12;;;;;;;0.80;0.60;;;;;;;;;;4921078;28;20042;-68
2023/05/10 11:37:43;;;;;;;1.50;0.70;;;;;;;;;;4945121;28;20062;-67
2023/05/10 11:40:09;;;;;;;1.08;0.60;;;;;;;;;;4943005;28;20686;-67
2023/05/10 11:42:38;;;;;;;0.60;0.40;;;;;;;;;;4944798;28;20054;-67
2023/05/10 11:45:04;;;;;;;0.82;0.50;;;;;;;;;;4934210;28;20039;-66
2023/05/10 11:47:30;;;;;;;0.90;0.50;;;;;;;;;;4935065;28;20054;-68
2023/05/10 11:49:55;;;;;;;1.23;0.38;;;;;;;;;;4932231;28;20039;-68
2023/05/10 11:52:20;;;;;;;0.95;0.50;;;;;;;;;;4950177;28;20114;-68
2023/05/10 11:54:53;;;;;;;0.30;0.20;;;;;;;;;;4947953;28;20053;-67
2023/05/10 11:57:25;;;;;;;2.85;0.50;;;;;;;;;;4946261;28;20134;-66
2023/05/10 11:59:54;;;;;;;0.30;0.30;;;;;;;;;;4908471;28;20060;-67
2023/05/10 12:02:20;;;;;;;0.30;0.30;;;;;;;;;;4944319;28;20090;-68
2023/05/10 12:04:46;;;;;;;0.90;0.32;;;;;;;;;;4948652;28;20169;-68
2023/05/10 12:07:11;;;;;;;0.52;0.40;;;;;;;;;;4945897;28;20031;-68
2023/05/10 12:09:37;;;;;;;0.40;0.40;;;;;;;;;;4943173;28;20461;-68
2023/05/10 12:12:02;;;;;;;0.57;0.22;;;;;;;;;;4934257;28;20042;-68
2023/05/10 12:14:33;;;;;;;1.33;0.50;;;;;;;;;;4943270;28;20045;-67
2023/05/10 12:16:58;;;;;;;0.37;0.30;;;;;;;;;;4937361;28;20602;-68
2023/05/10 12:19:23;;;;;;;0.45;0.30;;;;;;;;;;4927337;28;20035;-66
2023/05/10 12:21:49;;;;;;;0.30;0.30;;;;;;;;;;4938075;28;20031;-68
2023/05/10 12:24:17;;;;;;;0.30;0.30;;;;;;;;;;4947829;28;20030;-67
2023/05/10 12:26:43;;;;;;;0.55;0.30;;;;;;;;;;4939343;28;20046;-66
2023/05/10 12:29:16;;;;;;;0.30;0.30;;;;;;;;;;4947268;28;20042;-68
2023/05/10 12:31:53;;;;;;;0.30;0.30;;;;;;;;;;4946120;28;20500;-68
2023/05/10 12:34:38;;;;;;;0.50;0.50;;;;;;;;;;4940744;28;20270;-68
2023/05/10 12:37:03;;;;;;;1.02;0.40;;;;;;;;;;4920284;28;20046;-67
2023/05/10 12:39:44;;;;;;;0.75;0.50;;;;;;;;;;4940402;28;20559;-68
2023/05/10 12:42:10;;;;;;;0.30;0.30;;;;;;;;;;4932531;28;20851;-68
2023/05/10 12:44:35;;;;;;;0.45;0.30;;;;;;;;;;4941122;28;20054;-68
2023/05/10 12:47:01;;;;;;;1.50;0.40;;;;;;;;;;4944317;28;20122;-66
2023/05/10 12:49:26;;;;;;;1.10;0.47;;;;;;;;;;4935475;28;20086;-68
2023/05/10 12:51:52;;;;;;;0.25;0.25;;;;;;;;;;4941501;28;20058;-68
2023/05/10 12:54:17;;;;;;;0.30;0.30;;;;;;;;;;4943311;28;20039;-67
2023/05/10 12:56:43;;;;;;;1.13;0.40;;;;;;;;;;4930112;28;20124;-68
2023/05/10 12:59:08;;;;;;;0.50;0.30;;;;;;;;;;4925681;28;21341;-68
2023/05/10 13:01:33;;;;;;;0.20;0.20;;;;;;;;;;4941854;28;20117;-67
2023/05/10 13:04:00;;;;;;;0.70;0.30;;;;;;;;;;4933120;28;20043;-67
2023/05/10 13:06:25;;;;;;;1.00;0.50;;;;;;;;;;4942319;28;20051;-68
2023/05/10 13:08:51;;;;;;;0.40;0.40;;;;;;;;;;4945789;28;20522;-66
2023/05/10 13:11:17;;;;;;;0.73;0.52;;;;;;;;;;4936432;28;20107;-67
2023/05/10 13:13:42;;;;;;;1.38;0.40;;;;;;;;;;4940410;28;20150;-67
2023/05/10 13:16:08;;;;;;;0.40;0.40;;;;;;;;;;4942258;28;20536;-68
2023/05/10 13:18:33;;;;;;;0.43;0.30;;;;;;;;;;4936313;28;20035;-68
2023/05/10 13:20:59;;;;;;;0.40;0.40;;;;;;;;;;4944175;28;20042;-68
2023/05/10 13:23:24;;;;;;;0.88;0.40;;;;;;;;;;4946651;28;20587;-68
2023/05/10 13:25:49;;;;;;;0.20;0.20;;;;;;;;;;4937061;28;20270;-67
2023/05/10 13:28:15;;;;;;;1.02;0.40;;;;;;;;;;4947406;28;20078;-68
2023/05/10 13:30:40;;;;;;;1.55;0.50;;;;;;;;;;4943808;28;20069;-67
2023/05/10 13:33:06;;;;;;;0.55;0.50;;;;;;;;;;4913664;28;20052;-67
2023/05/10 13:35:31;;;;;;;1.25;0.40;;;;;;;;;;4946343;28;20058;-68
2023/05/10 13:37:57;;;;;;;0.40;0.40;;;;;;;;;;4936831;28;20048;-67
2023/05/10 13:40:23;;;;;;;0.98;0.40;;;;;;;;;;4937476;28;20043;-67
2023/05/10 13:42:48;;;;;;;0.40;0.40;;;;;;;;;;4943436;28;20035;-67
2023/05/10 13:45:13;;;;;;;1.75;0.40;;;;;;;;;;4933987;28;20524;-67
2023/05/10 13:47:39;;;;;;;0.88;0.40;;;;;;;;;;4939808;28;20066;-67
2023/05/10 13:50:06;;;;;;;0.65;0.40;;;;;;;;;;4942309;28;20038;-67
2023/05/10 13:52:31;;;;;;;0.70;0.40;;;;;;;;;;4943297;28;20046;-68
2023/05/10 13:54:57;;;;;;;0.82;0.32;;;;;;;;;;4931191;28;21423;-67
2023/05/10 13:57:23;;;;;;;0.60;0.35;;;;;;;;;;4922800;28;20051;-68
2023/05/10 13:59:49;;;;;;;0.40;0.40;;;;;;;;;;4902942;28;20083;-67
2023/05/10 14:02:14;;;;;;;0.50;0.50;;;;;;;;;;4939154;28;20441;-68
2023/05/10 14:04:39;;;;;;;0.30;0.30;;;;;;;;;;4928319;28;20074;-67
2023/05/10 14:07:05;;;;;;;0.30;0.30;;;;;;;;;;4933987;28;20031;-67
2023/05/10 14:09:31;;;;;;;1.38;0.60;;;;;;;;;;4933372;28;20061;-68
2023/05/10 14:11:57;;;;;;;1.55;0.50;;;;;;;;;;4940800;28;20404;-68
2023/05/10 14:14:22;;;;;;;1.38;0.47;;;;;;;;;;4937112;28;20047;-68
2023/05/10 14:16:48;;;;;;;0.95;0.50;;;;;;;;;;4943479;28;20116;-68
2023/05/10 14:19:14;;;;;;;0.63;0.40;;;;;;;;;;4942454;28;20039;-68
2023/05/10 14:21:39;;;;;;;2.15;0.52;;;;;;;;;;4942056;28;20105;-69
2023/05/10 14:24:06;;;;;;;0.75;0.35;;;;;;;;;;4943310;28;20035;-67
2023/05/10 14:26:31;;;;;;;1.27;0.43;;;;;;;;;;4923296;28;20131;-68
2023/05/10 14:28:57;;;;;;;0.75;0.60;;;;;;;;;;4932617;28;20134;-67
2023/05/10 14:31:24;;;;;;;0.70;0.47;;;;;;;;;;4929306;28;20738;-68
2023/05/10 14:33:50;;;;;;;1.88;0.60;;;;;;;;;;4949041;28;20042;-68
2023/05/10 14:36:15;;;;;;;1.65;0.50;;;;;;;;;;4948431;28;20634;-66
2023/05/10 14:38:41;;;;;;;0.73;0.40;;;;;;;;;;4944348;28;20050;-68
2023/05/10 14:41:07;;;;;;;0.95;0.50;;;;;;;;;;4934361;28;20047;-68
2023/05/10 14:43:32;;;;;;;0.57;0.40;;;;;;;;;;4943140;28;20597;-67
2023/05/10 14:45:58;;;;;;;0.30;0.30;;;;;;;;;;4941536;28;20039;-68